createdAt,value
2018-05-12T00:02:23.773Z,13.40
2018-05-12T00:04:50.430Z,13.40
2018-05-12T00:07:16.313Z,13.40
2018-05-12T00:09:42.232Z,13.40
2018-05-12T00:12:08.135Z,13.40
2018-05-12T00:14:34.033Z,13.40
2018-05-12T00:16:59.939Z,13.40
2018-05-12T00:19:25.832Z,13.30
2018-05-12T00:21:52.484Z,13.30
2018-05-12T00:24:19.115Z,13.40
2018-05-12T00:26:45.738Z,13.40
2018-05-12T00:29:11.648Z,13.30
2018-05-12T00:31:37.547Z,13.40
2018-05-12T00:34:03.467Z,13.40
2018-05-12T00:36:29.365Z,13.30
2018-05-12T00:38:55.269Z,13.30
2018-05-12T00:41:21.184Z,13.30
2018-05-12T00:43:47.822Z,13.30
2018-05-12T00:46:14.465Z,13.30
2018-05-12T00:48:40.368Z,13.30
2018-05-12T00:51:07.029Z,13.20
2018-05-12T00:53:32.920Z,13.20
2018-05-12T00:55:58.806Z,13.20
2018-05-12T00:58:24.720Z,13.20
2018-05-12T01:00:50.642Z,13.20
2018-05-12T01:03:16.533Z,13.20
2018-05-12T01:05:42.433Z,13.20
2018-05-12T01:08:09.079Z,13.20
2018-05-12T01:10:35.718Z,13.20
2018-05-12T01:13:01.602Z,13.20
2018-05-12T01:15:27.502Z,13.20
2018-05-12T01:17:53.407Z,13.20
2018-05-12T01:20:19.306Z,13.20
2018-05-12T01:22:45.192Z,13.20
2018-05-12T01:25:11.089Z,13.10
2018-05-12T01:27:36.972Z,13.00
2018-05-12T01:30:02.868Z,12.90
2018-05-12T01:32:29.515Z,13.00
2018-05-12T01:34:56.137Z,12.90
2018-05-12T01:37:22.042Z,12.90
2018-05-12T01:39:47.925Z,12.80
2018-05-12T01:42:13.830Z,12.70
2018-05-12T01:44:39.721Z,12.70
2018-05-12T01:47:06.350Z,12.60
2018-05-12T01:49:32.690Z,12.60
2018-05-12T01:51:58.767Z,12.70
2018-05-12T01:54:24.660Z,12.70
2018-05-12T01:56:50.691Z,12.70
2018-05-12T01:59:16.590Z,12.60
2018-05-12T02:01:43.347Z,12.50
2018-05-12T02:04:09.236Z,12.50
2018-05-12T02:06:35.136Z,12.50
2018-05-12T02:09:01.020Z,12.60
2018-05-12T02:11:26.916Z,12.60
2018-05-12T02:13:53.545Z,12.70
2018-05-12T02:16:19.450Z,12.60
2018-05-12T02:18:46.182Z,12.70
2018-05-12T02:21:12.074Z,12.70
2018-05-12T02:23:37.973Z,12.80
2018-05-12T02:26:03.858Z,12.70
2018-05-12T02:28:30.517Z,12.90
2018-05-12T02:30:56.415Z,12.90
2018-05-12T02:33:23.073Z,13.10
2018-05-12T02:35:48.974Z,13.10
2018-05-12T02:38:15.685Z,13.30
2018-05-12T02:40:41.617Z,13.30
2018-05-12T02:43:07.510Z,13.40
2018-05-12T02:45:33.421Z,13.40
2018-05-12T02:47:59.333Z,13.50
2018-05-12T02:50:25.294Z,13.50
2018-05-12T02:52:51.191Z,13.50
2018-05-12T02:55:17.078Z,13.60
2018-05-12T02:57:43.024Z,13.50
2018-05-12T03:00:08.922Z,13.50
2018-05-12T03:02:34.848Z,13.60
2018-05-12T03:05:00.750Z,13.70
2018-05-12T03:07:27.411Z,13.80
2018-05-12T03:09:53.318Z,13.80
2018-05-12T03:12:19.970Z,13.80
2018-05-12T03:14:45.889Z,13.80
2018-05-12T03:17:12.145Z,13.90
2018-05-12T03:19:38.093Z,14.00
2018-05-12T03:22:03.973Z,14.00
2018-05-12T03:24:29.875Z,14.10
2018-05-12T03:26:55.790Z,14.10
2018-05-12T03:29:21.689Z,14.20
2018-05-12T03:31:47.590Z,14.20
2018-05-12T03:34:13.504Z,14.20
2018-05-12T03:36:39.411Z,14.20
2018-05-12T03:39:05.311Z,14.20
2018-05-12T03:41:31.214Z,14.30
2018-05-12T03:43:57.116Z,14.30
2018-05-12T03:46:23.747Z,14.30
2018-05-12T03:48:49.656Z,14.30
2018-05-12T03:51:15.574Z,14.40
2018-05-12T03:53:41.474Z,14.40
2018-05-12T03:56:07.400Z,14.50
2018-05-12T03:58:33.305Z,14.50
2018-05-12T04:00:59.230Z,14.50
2018-05-12T04:03:25.130Z,14.60
2018-05-12T04:06:03.570Z,14.60
2018-05-12T04:08:42.648Z,14.70
2018-05-12T04:11:21.111Z,14.80
2018-05-12T04:13:46.997Z,14.80
2018-05-12T04:16:12.910Z,14.90
2018-05-12T04:18:39.583Z,14.80
2018-05-12T04:21:05.585Z,14.80
2018-05-12T04:23:31.429Z,14.80
2018-05-12T04:25:57.318Z,14.70
2018-05-12T04:28:23.988Z,14.70
2018-05-12T04:30:49.887Z,14.70
2018-05-12T04:33:15.797Z,14.80
2018-05-12T04:35:41.719Z,14.60
2018-05-12T04:38:07.625Z,14.60
2018-05-12T04:40:34.296Z,14.50
2018-05-12T04:43:00.196Z,14.40
2018-05-12T04:45:26.849Z,14.40
2018-05-12T04:47:52.753Z,14.30
2018-05-12T04:50:19.391Z,14.30
2018-05-12T04:52:46.059Z,14.30
2018-05-12T04:55:11.967Z,14.30
2018-05-12T04:57:37.880Z,14.30
2018-05-12T05:00:03.770Z,14.40
2018-05-12T05:02:30.542Z,14.50
2018-05-12T05:04:56.456Z,14.70
2018-05-12T05:07:22.357Z,14.90
2018-05-12T05:09:48.270Z,15.20
2018-05-12T05:12:14.166Z,15.40
2018-05-12T05:14:40.069Z,15.40
2018-05-12T05:17:06.000Z,15.40
2018-05-12T05:19:31.931Z,15.60
2018-05-12T05:21:57.850Z,15.60
2018-05-12T05:24:23.749Z,15.70
2018-05-12T05:26:49.653Z,15.60
2018-05-12T05:29:15.553Z,15.70
2018-05-12T05:31:42.200Z,15.80
2018-05-12T05:34:08.822Z,15.90
2018-05-12T05:36:35.484Z,16.10
2018-05-12T05:39:01.386Z,16.00
2018-05-12T05:41:28.088Z,16.00
2018-05-12T05:43:53.949Z,16.00
2018-05-12T05:46:20.632Z,16.50
2018-05-12T05:48:46.529Z,16.40
2018-05-12T05:51:12.428Z,16.60
2018-05-12T05:53:39.089Z,17.10
2018-05-12T05:56:04.993Z,17.00
2018-05-12T05:58:31.630Z,17.30
2018-05-12T06:00:57.552Z,17.20
2018-05-12T06:03:23.472Z,17.60
2018-05-12T06:05:49.411Z,17.80
2018-05-12T06:08:15.317Z,17.60
2018-05-12T06:10:41.230Z,17.70
2018-05-12T06:13:07.862Z,17.70
2018-05-12T06:15:34.509Z,18.10
2018-05-12T06:18:00.440Z,18.10
2018-05-12T06:20:26.342Z,18.70
2018-05-12T06:22:53.028Z,19.00
2018-05-12T06:25:18.935Z,18.90
2018-05-12T06:27:44.856Z,19.80
2018-05-12T06:30:10.757Z,19.90
2018-05-12T06:32:36.670Z,20.60
2018-05-12T06:35:03.356Z,21.00
2018-05-12T06:37:29.273Z,21.00
2018-05-12T06:39:55.162Z,21.00
2018-05-12T06:42:21.081Z,20.70
2018-05-12T06:44:46.972Z,21.30
2018-05-12T06:47:12.892Z,20.90
2018-05-12T06:49:38.788Z,20.70
2018-05-12T06:52:04.702Z,20.90
2018-05-12T06:54:30.687Z,20.70
2018-05-12T06:56:56.622Z,20.30
2018-05-12T06:59:22.524Z,20.10
2018-05-12T07:01:48.485Z,20.40
2018-05-12T07:04:14.382Z,20.70
2018-05-12T07:06:40.294Z,20.20
2018-05-12T07:09:06.223Z,20.20
2018-05-12T07:11:32.130Z,20.80
2018-05-12T07:13:58.041Z,22.00
2018-05-12T07:16:24.674Z,22.20
2018-05-12T07:18:51.345Z,22.20
2018-05-12T07:21:17.267Z,22.20
2018-05-12T07:23:43.162Z,22.20
2018-05-12T07:26:09.843Z,22.40
2018-05-12T07:28:35.762Z,22.30
2018-05-12T07:31:01.676Z,22.30
2018-05-12T07:33:27.579Z,21.60
2018-05-12T07:35:53.500Z,21.60
2018-05-12T07:38:19.407Z,21.60
2018-05-12T07:40:46.058Z,23.30
2018-05-12T07:43:11.969Z,23.40
2018-05-12T07:45:38.771Z,22.80
2018-05-12T07:48:04.660Z,22.30
2018-05-12T07:50:30.559Z,22.20
2018-05-12T07:52:56.488Z,23.40
2018-05-12T07:55:22.450Z,24.60
2018-05-12T07:57:48.331Z,24.80
2018-05-12T08:00:14.276Z,25.60
2018-05-12T08:02:40.178Z,25.80
2018-05-12T08:05:06.098Z,24.90
2018-05-12T08:07:32.004Z,24.20
2018-05-12T08:09:57.893Z,24.40
2018-05-12T08:12:24.546Z,25.80
2018-05-12T08:14:51.185Z,26.10
2018-05-12T08:17:17.094Z,26.00
2018-05-12T08:19:43.731Z,26.70
2018-05-12T08:22:10.378Z,26.50
2018-05-12T08:24:37.033Z,26.10
2018-05-12T08:27:02.921Z,26.10
2018-05-12T08:29:28.846Z,25.30
2018-05-12T08:31:54.747Z,24.60
2018-05-12T08:34:20.654Z,24.60
2018-05-12T08:36:46.575Z,24.30
2018-05-12T08:39:12.470Z,23.90
2018-05-12T08:41:38.397Z,24.20
2018-05-12T08:44:04.288Z,23.90
2018-05-12T08:46:30.941Z,24.60
2018-05-12T08:48:56.862Z,24.60
2018-05-12T08:51:29.710Z,24.50
2018-05-12T08:53:55.664Z,24.20
2018-05-12T08:56:21.631Z,24.40
2018-05-12T08:58:47.535Z,24.80
2018-05-12T09:01:13.555Z,25.90
2018-05-12T09:03:39.454Z,26.30
2018-05-12T09:06:05.398Z,25.40
2018-05-12T09:08:31.335Z,23.50
2018-05-12T09:10:57.230Z,23.80
2018-05-12T09:13:24.125Z,24.30
2018-05-12T09:15:50.018Z,24.10
2018-05-12T09:18:15.910Z,23.80
2018-05-12T09:20:41.855Z,23.40
2018-05-12T09:23:07.775Z,23.20
2018-05-12T09:25:33.680Z,22.80
2018-05-12T09:27:59.595Z,23.30
2018-05-12T09:30:25.484Z,23.60
2018-05-12T09:32:52.161Z,24.30
2018-05-12T09:35:18.091Z,24.30
2018-05-12T09:37:44.175Z,24.60
2018-05-12T09:40:10.093Z,24.30
2018-05-12T09:42:36.926Z,24.40
2018-05-12T09:45:02.897Z,24.30
2018-05-12T09:47:29.025Z,23.60
2018-05-12T09:49:54.909Z,22.80
2018-05-12T09:52:20.901Z,22.80
2018-05-12T09:54:46.733Z,23.30
2018-05-12T09:57:13.486Z,23.40
2018-05-12T09:59:39.475Z,23.40
2018-05-12T10:02:05.492Z,24.40
2018-05-12T10:04:32.161Z,24.70
2018-05-12T10:06:58.844Z,24.00
2018-05-12T10:09:24.829Z,23.90
2018-05-12T10:11:50.758Z,22.80
2018-05-12T10:14:16.656Z,22.20
2018-05-12T10:16:42.560Z,22.60
2018-05-12T10:19:08.448Z,22.50
2018-05-12T10:21:34.387Z,22.80
2018-05-12T10:24:00.302Z,23.30
2018-05-12T10:26:26.209Z,23.00
2018-05-12T10:28:52.130Z,23.30
2018-05-12T10:31:18.034Z,23.70
2018-05-12T10:33:43.945Z,23.50
2018-05-12T10:36:09.938Z,23.30
2018-05-12T10:38:36.647Z,24.10
2018-05-12T10:41:02.534Z,24.20
2018-05-12T10:43:28.438Z,24.00
2018-05-12T10:45:54.337Z,24.40
2018-05-12T10:48:20.231Z,24.70
2018-05-12T10:50:46.152Z,25.50
2018-05-12T10:53:12.043Z,23.90
2018-05-12T10:55:37.962Z,24.10
2018-05-12T10:58:03.913Z,23.70
2018-05-12T11:00:29.833Z,23.60
2018-05-12T11:02:55.771Z,23.20
2018-05-12T11:05:21.685Z,23.30
2018-05-12T11:07:47.617Z,24.10
2018-05-12T11:10:13.556Z,24.20
2018-05-12T11:12:40.198Z,23.60
2018-05-12T11:15:06.833Z,23.70
2018-05-12T11:17:33.455Z,23.80
2018-05-12T11:20:00.229Z,23.80
2018-05-12T11:22:26.854Z,24.80
2018-05-12T11:24:53.500Z,26.00
2018-05-12T11:27:20.165Z,27.10
2018-05-12T11:29:46.121Z,27.10
2018-05-12T11:32:12.041Z,25.70
2018-05-12T11:34:37.924Z,25.40
2018-05-12T11:37:03.836Z,24.40
2018-05-12T11:39:29.753Z,24.80
2018-05-12T11:41:55.672Z,24.50
2018-05-12T11:44:21.577Z,24.70
2018-05-12T11:46:48.206Z,24.50
2018-05-12T11:49:14.847Z,24.30
2018-05-12T11:51:40.759Z,24.30
2018-05-12T11:54:06.692Z,24.60
2018-05-12T11:56:32.726Z,24.10
2018-05-12T11:58:59.412Z,24.00
2018-05-12T12:01:25.303Z,24.00
2018-05-12T12:03:52.054Z,23.40
2018-05-12T12:06:17.856Z,23.30
2018-05-12T12:08:43.790Z,23.60
2018-05-12T12:11:09.706Z,24.30
2018-05-12T12:13:35.628Z,24.50
2018-05-12T12:16:01.548Z,24.70
2018-05-12T12:18:27.479Z,25.40
2018-05-12T12:20:53.409Z,25.90
2018-05-12T12:23:19.306Z,26.10
2018-05-12T12:25:45.195Z,26.40
2018-05-12T12:28:11.869Z,26.70
2018-05-12T12:30:37.761Z,26.70
2018-05-12T12:33:04.440Z,26.50
2018-05-12T12:35:30.350Z,26.50
2018-05-12T12:37:56.251Z,26.60
2018-05-12T12:40:22.929Z,27.50
2018-05-12T12:42:48.840Z,27.50
2018-05-12T12:45:14.745Z,28.10
2018-05-12T12:47:40.657Z,28.90
2018-05-12T12:50:06.568Z,28.10
2018-05-12T12:52:33.434Z,28.40
2018-05-12T12:54:59.381Z,28.50
2018-05-12T12:57:25.309Z,29.10
2018-05-12T12:59:51.262Z,28.20
2018-05-12T13:02:17.898Z,28.10
2018-05-12T13:04:44.552Z,27.90
2018-05-12T13:07:10.449Z,27.80
2018-05-12T13:09:36.366Z,28.30
2018-05-12T13:12:02.272Z,28.80
2018-05-12T13:14:28.177Z,29.40
2018-05-12T13:16:54.122Z,29.00
2018-05-12T13:19:20.037Z,29.00
2018-05-12T13:21:45.923Z,28.70
2018-05-12T13:26:40.311Z,28.60
2018-05-12T13:29:06.224Z,28.70
2018-05-12T13:31:33.176Z,28.30
2018-05-12T13:33:59.067Z,28.30
2018-05-12T13:36:25.719Z,27.60
2018-05-12T13:38:52.383Z,26.60
2018-05-12T13:41:18.269Z,26.60
2018-05-12T13:43:44.938Z,26.30
2018-05-12T13:46:10.837Z,26.30
2018-05-12T13:48:37.489Z,28.40
2018-05-12T13:51:03.390Z,28.50
2018-05-12T13:53:30.053Z,29.60
2018-05-12T13:55:56.001Z,29.60
2018-05-12T13:58:21.889Z,29.40
2018-05-12T14:00:47.863Z,29.90
2018-05-12T14:03:13.764Z,29.40
2018-05-12T14:05:39.673Z,29.20
2018-05-12T14:08:05.645Z,28.60
2018-05-12T14:10:32.292Z,28.00
2018-05-12T14:12:58.919Z,26.80
2018-05-12T14:15:24.838Z,26.80
2018-05-12T14:17:51.479Z,26.20
2018-05-12T14:20:18.120Z,26.70
2018-05-12T14:22:44.785Z,27.20
2018-05-12T14:25:10.669Z,27.20
2018-05-12T14:27:36.566Z,27.60
2018-05-12T14:30:02.482Z,28.30
2018-05-12T14:32:28.425Z,28.30
2018-05-12T14:34:54.354Z,27.90
2018-05-12T14:37:20.299Z,27.60
2018-05-12T14:39:46.944Z,27.70
2018-05-12T14:42:12.873Z,27.60
2018-05-12T14:44:38.807Z,27.90
2018-05-12T14:47:04.695Z,28.50
2018-05-12T14:49:31.355Z,29.20
2018-05-12T14:51:57.282Z,29.20
2018-05-12T14:54:23.175Z,28.60
2018-05-12T14:56:49.830Z,27.30
2018-05-12T14:59:15.845Z,27.20
2018-05-12T15:01:41.689Z,27.60
2018-05-12T15:04:07.589Z,28.20
2018-05-12T15:06:33.512Z,28.60
2018-05-12T15:08:59.437Z,28.60
2018-05-12T15:11:25.353Z,27.80
2018-05-12T15:13:51.299Z,26.70
2018-05-12T15:16:17.202Z,26.60
2018-05-12T15:18:43.108Z,27.80
2018-05-12T15:21:09.021Z,26.60
2018-05-12T15:23:35.649Z,27.30
2018-05-12T15:26:02.318Z,26.90
2018-05-12T15:28:28.389Z,26.90
2018-05-12T15:30:54.344Z,27.40
2018-05-12T15:33:20.286Z,26.90
2018-05-12T15:35:46.292Z,26.20
2018-05-12T15:38:12.185Z,26.30
2018-05-12T15:40:38.123Z,26.50
2018-05-12T15:43:05.068Z,27.00
2018-05-12T15:45:31.882Z,26.80
2018-05-12T15:47:58.117Z,26.80
2018-05-12T15:50:24.956Z,25.20
2018-05-12T15:52:50.863Z,25.20
2018-05-12T15:55:16.813Z,25.10
2018-05-12T15:57:43.544Z,25.20
2018-05-12T16:00:09.458Z,25.20
2018-05-12T16:02:35.446Z,24.80
2018-05-12T16:05:01.351Z,24.60
2018-05-12T16:07:27.290Z,24.60
2018-05-12T16:09:53.185Z,24.60
2018-05-12T16:12:19.193Z,24.70
2018-05-12T16:14:45.045Z,24.30
2018-05-12T16:17:10.957Z,24.30
2018-05-12T16:19:36.912Z,24.20
2018-05-12T16:22:02.827Z,24.20
2018-05-12T16:24:28.768Z,24.20
2018-05-12T16:26:54.683Z,24.30
2018-05-12T16:29:20.597Z,24.00
2018-05-12T16:31:46.510Z,24.00
2018-05-12T16:34:12.454Z,23.90
2018-05-12T16:36:38.352Z,24.00
2018-05-12T16:39:04.275Z,23.90
2018-05-12T16:41:30.621Z,23.80
2018-05-12T16:43:56.515Z,23.70
2018-05-12T16:46:22.448Z,23.50
2018-05-12T16:48:48.378Z,23.40
2018-05-12T16:51:14.322Z,23.30
2018-05-12T16:53:40.250Z,23.30
2018-05-12T16:56:06.159Z,23.30
2018-05-12T16:58:32.074Z,23.30
2018-05-12T17:00:57.977Z,23.40
2018-05-12T17:03:23.934Z,23.30
2018-05-12T17:05:50.617Z,23.30
2018-05-12T17:08:16.734Z,23.20
2018-05-12T17:10:42.653Z,23.20
2018-05-12T17:13:08.618Z,23.20
2018-05-12T17:15:34.553Z,23.20
2018-05-12T17:18:01.193Z,22.90
2018-05-12T17:20:27.836Z,22.90
2018-05-12T17:22:53.834Z,22.80
2018-05-12T17:25:19.774Z,23.00
2018-05-12T17:27:52.687Z,22.90
2018-05-12T17:30:18.620Z,22.80
2018-05-12T17:32:44.550Z,22.80
2018-05-12T17:35:10.513Z,22.80
2018-05-12T17:37:36.459Z,22.70
2018-05-12T17:40:03.129Z,22.70
2018-05-12T17:42:29.058Z,22.60
2018-05-12T17:44:55.256Z,22.60
2018-05-12T17:47:23.424Z,22.50
2018-05-12T17:49:49.325Z,22.50
2018-05-12T17:52:16.082Z,22.30
2018-05-12T17:54:42.856Z,22.30
2018-05-12T17:57:08.775Z,22.30
2018-05-12T17:59:34.700Z,22.30
2018-05-12T18:02:00.619Z,22.20
2018-05-12T18:04:26.600Z,22.20
2018-05-12T18:06:53.671Z,22.10
2018-05-12T18:09:19.565Z,22.10
2018-05-12T18:11:46.243Z,21.90
2018-05-12T18:14:12.152Z,21.90
2018-05-12T18:16:38.085Z,21.90
2018-05-12T18:19:04.240Z,21.80
2018-05-12T18:21:30.158Z,21.70
2018-05-12T18:23:56.114Z,21.70
2018-05-12T18:26:22.776Z,21.50
2018-05-12T18:28:48.756Z,21.50
2018-05-12T18:31:14.662Z,21.40
2018-05-12T18:33:41.629Z,21.40
2018-05-12T18:36:07.580Z,21.30
2018-05-12T18:38:33.492Z,21.30
2018-05-12T18:41:00.198Z,21.10
2018-05-12T18:43:26.141Z,21.10
2018-05-12T18:45:52.780Z,21.00
2018-05-12T18:48:18.696Z,20.90
2018-05-12T18:50:45.406Z,20.90
2018-05-12T18:53:11.308Z,20.80
2018-05-12T18:55:37.216Z,20.80
2018-05-12T18:58:03.147Z,20.70
2018-05-12T19:00:29.080Z,20.60
2018-05-12T19:02:55.012Z,20.60
2018-05-12T19:05:20.969Z,20.50
2018-05-12T19:07:47.688Z,20.50
2018-05-12T19:10:13.648Z,20.40
2018-05-12T19:12:39.568Z,20.40
2018-05-12T19:15:05.504Z,20.30
2018-05-12T19:17:31.432Z,20.30
2018-05-12T19:19:57.370Z,20.30
2018-05-12T19:22:23.318Z,20.30
2018-05-12T19:24:49.236Z,20.20
2018-05-12T19:27:15.142Z,20.20
2018-05-12T19:29:41.080Z,20.10
2018-05-12T19:32:07.009Z,20.10
2018-05-12T19:34:33.658Z,20.00
2018-05-12T19:36:59.637Z,19.90
2018-05-12T19:39:25.546Z,19.90
2018-05-12T19:41:51.456Z,19.80
2018-05-12T19:44:17.370Z,19.70
2018-05-12T19:46:43.285Z,19.70
2018-05-12T19:49:09.185Z,19.70
2018-05-12T19:51:35.841Z,19.60
2018-05-12T19:54:01.775Z,19.50
2018-05-12T19:56:27.689Z,19.50
2018-05-12T19:58:53.580Z,19.50
2018-05-12T20:01:20.231Z,19.40
2018-05-12T20:03:46.925Z,19.40
2018-05-12T20:06:12.802Z,19.40
2018-05-12T20:08:38.745Z,19.40
2018-05-12T20:11:04.692Z,19.30
2018-05-12T20:13:30.650Z,19.30
2018-05-12T20:15:56.620Z,19.30
2018-05-12T20:18:22.514Z,19.20
2018-05-12T20:20:48.451Z,19.20
2018-05-12T20:23:14.352Z,19.20
2018-05-12T20:25:40.326Z,19.10
2018-05-12T20:28:06.179Z,19.20
2018-05-12T20:30:32.844Z,19.10
2018-05-12T20:32:58.761Z,19.10
2018-05-12T20:35:24.672Z,19.10
2018-05-12T20:37:50.602Z,19.00
2018-05-12T20:40:16.524Z,19.10
2018-05-12T20:42:42.471Z,19.00
2018-05-12T20:45:08.386Z,19.00
2018-05-12T20:47:34.283Z,19.00
2018-05-12T20:50:00.228Z,18.90
2018-05-12T20:52:26.130Z,18.90
2018-05-12T20:54:52.042Z,18.90
2018-05-12T20:57:17.972Z,18.80
2018-05-12T20:59:43.870Z,18.90
2018-05-12T21:02:10.534Z,18.70
2018-05-12T21:04:36.427Z,18.70
2018-05-12T21:07:03.108Z,18.70
2018-05-12T21:09:29.012Z,18.70
2018-05-12T21:11:54.940Z,18.70
2018-05-12T21:14:20.849Z,18.60
2018-05-12T21:16:46.783Z,18.50
2018-05-12T21:19:12.740Z,18.50
2018-05-12T21:21:38.658Z,18.40
2018-05-12T21:24:04.670Z,18.30
2018-05-12T21:26:30.510Z,18.20
2018-05-12T21:28:56.535Z,18.20
2018-05-12T21:31:23.239Z,18.10
2018-05-12T21:33:49.156Z,18.10
2018-05-12T21:36:15.233Z,18.10
2018-05-12T21:38:41.898Z,18.00
2018-05-12T21:41:07.830Z,18.00
2018-05-12T21:43:33.767Z,17.90
2018-05-12T21:45:59.768Z,17.80
2018-05-12T21:48:25.682Z,17.80
2018-05-12T21:50:51.614Z,17.70
2018-05-12T21:53:17.521Z,17.70
2018-05-12T21:55:43.449Z,17.70
2018-05-12T21:58:09.354Z,17.60
2018-05-12T22:00:35.261Z,17.60
2018-05-12T22:03:01.924Z,17.40
2018-05-12T22:05:27.954Z,17.30
2018-05-12T22:07:54.324Z,17.20
2018-05-12T22:10:20.750Z,17.20
2018-05-12T22:12:47.443Z,17.10
2018-05-12T22:15:13.408Z,17.10
2018-05-12T22:17:39.433Z,17.00
2018-05-12T22:20:06.032Z,17.00
2018-05-12T22:22:32.010Z,17.00
2018-05-12T22:24:58.113Z,17.00
2018-05-12T22:27:24.169Z,16.80
2018-05-12T22:29:50.850Z,16.70
2018-05-12T22:32:16.781Z,16.70
2018-05-12T22:34:42.699Z,16.70
2018-05-12T22:37:08.641Z,16.70
2018-05-12T22:39:34.545Z,16.80
2018-05-12T22:42:00.460Z,16.70
2018-05-12T22:44:26.390Z,16.70
2018-05-12T22:46:52.333Z,16.70
2018-05-12T22:49:18.243Z,16.60
2018-05-12T22:51:44.159Z,16.60
2018-05-12T22:54:10.133Z,16.60
2018-05-12T22:56:36.031Z,16.50
2018-05-12T22:59:01.952Z,16.50
2018-05-12T23:01:27.869Z,16.40
2018-05-12T23:03:53.774Z,16.40
2018-05-12T23:06:19.736Z,16.40
2018-05-12T23:08:45.627Z,16.40
2018-05-12T23:11:11.560Z,16.40
2018-05-12T23:13:37.442Z,16.40
2018-05-12T23:16:03.365Z,16.40
2018-05-12T23:18:29.322Z,16.30
2018-05-12T23:20:55.202Z,16.30
2018-05-12T23:23:21.116Z,16.30
2018-05-12T23:25:47.012Z,16.20
2018-05-12T23:28:12.929Z,16.10
2018-05-12T23:30:38.839Z,16.10
2018-05-12T23:33:05.462Z,16.00
2018-05-12T23:35:31.407Z,16.00
2018-05-12T23:37:58.061Z,16.00
2018-05-12T23:40:23.975Z,16.00
2018-05-12T23:42:50.580Z,16.00
2018-05-12T23:45:16.477Z,16.00
2018-05-12T23:47:42.379Z,16.00
2018-05-12T23:50:08.301Z,16.10
2018-05-12T23:52:34.223Z,16.00
2018-05-12T23:55:00.137Z,16.00
2018-05-12T23:57:26.055Z,16.00
2018-05-12T23:59:51.968Z,16.00
